Massey, Iowa
Current Conditions -  °F | °C
As of 9:53 PM on Monday 22 Dec 2014 (Local Time) from KDBQ Reporting Station
Haze Haze  
Wind Chill: 29°   Ceiling: 200
Heat Index: 37°   Visibility: 1mi
Dew Point: 37°   Wind: 12mph
Humidity: 100%   Direction: 90°E
Pressure: 29.52"   Gusts: NA
Location:  42.549°N, 90.6988°W
Report Text: KDBQ 230353Z AUTO 09010KT 1SM R36/4500V5500FT UP BR VV002 03/03 A2952 RMK AO2 UPB0254 SLP005 P0002 T00280028
Loading
Personal Weather Stations






























Interactive Weather Map New forecast layout! Learn more

10-Day Weather Forecast

Advertisements
Track Severe Weather on mobile